Buoy 62910

sailwx.info

Track history (hours):
 
Tides and Currents Weather Stations Pressure Air Temp Water Temp Dewpoint Dewpoint Depression Visibility Wind Speed Wind Dir Waves Ship Positions

Drifting buoy 62910

Last reported at 2015-Jul-06 18:01 UTC. Time now 2015-Jul-06 19:57 UTC.
Position N 43°13' E 008°47'.

Water temperature 27.6 ° C

Date/timePositionNaut miles runAvg speedWind from/ knotsBaromVisibWave heightAir tempDewpointWater temp
2015-Jul-06 18:01N 43°13' E 008°47'1 7.2 27.6
2015-Jul-06 17:56N 43°12' E 008°46'1 0.2 27.6
2015-Jul-06 15:06N 43°12' E 008°46'0 1.3 27.7
2015-Jul-06 14:59N 43°12' E 008°46'0 0.1 27.7
2015-Jul-06 14:15N 43°12' E 008°46'1 0.3 27.6
2015-Jul-06 10:52N 43°11' E 008°44'1 0.5 26.9
2015-Jul-06 08:50N 43°10' E 008°44'2 0.6 26.7
2015-Jul-06 05:50N 43°09' E 008°41'1 0.4 26.6
2015-Jul-06 04:11N 43°09' E 008°41'2 0.7 26.7
2015-Jul-06 01:00N 43°07' E 008°38'1 0.1 26.9
2015-Jul-05 20:10N 43°08' E 008°38'1 0.7 27.1
2015-Jul-05 18:49N 43°07' E 008°37'0 0.0 27.2
2015-Jul-05 18:35N 43°07' E 008°37'0 1.5 27.2
2015-Jul-05 18:21N 43°07' E 008°37'1 1.8 27.2
2015-Jul-05 17:59N 43°07' E 008°36'0 0.0 27.2
2015-Jul-05 16:59N 43°07' E 008°36'0 0.0 27.2
2015-Jul-05 16:54N 43°07' E 008°36'0 0.4 27.2
2015-Jul-05 16:42N 43°07' E 008°36'1 0.5 27.2
2015-Jul-05 15:10N 43°07' E 008°35'0 0.6 27.2
2015-Jul-05 15:03N 43°07' E 008°35'0 1.8 27.2
2015-Jul-05 14:54N 43°07' E 008°35'1 0.3 27.2
2015-Jul-05 10:57N 43°07' E 008°34'0 0.0
2015-Jul-05 10:52N 43°07' E 008°34'0 6.4 26.9
2015-Jul-05 10:48N 43°07' E 008°33'0 0.0 26.9
2015-Jul-05 10:01N 43°07' E 008°33'0 4.3 26.8
2015-Jul-05 09:57N 43°07' E 008°33'0 0.0 26.7
2015-Jul-05 09:13N 43°07' E 008°33'0 2.5 26.4
2015-Jul-05 09:08N 43°07' E 008°33'0 0.1 26.4
2015-Jul-05 08:16N 43°07' E 008°33'0 0.2 26.1
2015-Jul-05 07:04N 43°07' E 008°32'0 1.7 26.0
2015-Jul-05 06:59N 43°07' E 008°32'0 5.3 26.0
2015-Jul-05 06:55N 43°07' E 008°32'1 0.3 26.0
2015-Jul-05 02:57N 43°07' E 008°30'1 0.4 26.4
2015-Jul-05 01:14N 43°06' E 008°29'1 0.2 26.7
2015-Jul-04 21:46N 43°06' E 008°28'0 0.5 27.0
2015-Jul-04 20:51N 43°06' E 008°28'0 0.0 27.2
2015-Jul-04 20:00N 43°06' E 008°28'0 6.0
2015-Jul-04 19:56N 43°06' E 008°27'0 0.4 27.4
2015-Jul-04 19:12N 43°06' E 008°27'0 0.1 27.7
2015-Jul-04 17:08N 43°06' E 008°27'113.6 27.9
2015-Jul-04 17:05N 43°06' E 008°26'0 0.1 27.9
2015-Jul-04 12:57N 43°06' E 008°25'1 0.6 27.7
2015-Jul-04 11:57N 43°06' E 008°25'0 0.0 27.3
2015-Jul-04 11:17N 43°06' E 008°25'0 2.6 27.3
2015-Jul-04 11:15N 43°06' E 008°25'0 4.8 27.4
2015-Jul-04 11:10N 43°06' E 008°24'1 0.4 27.4
2015-Jul-04 07:50N 43°06' E 008°22'0 0.3 26.5
2015-Jul-04 06:54N 43°06' E 008°22'1 0.3 26.3
2015-Jul-04 03:57N 43°05' E 008°22'0 0.5 26.2
2015-Jul-04 03:06N 43°05' E 008°21'0 1.5 26.3
2015-Jul-04 03:00N 43°05' E 008°21'1 0.3
2015-Jul-03 22:05N 43°04' E 008°19'0 2.2 27.0
2015-Jul-03 22:00N 43°04' E 008°20'0 5.3 27.0
2015-Jul-03 21:56N 43°04' E 008°19'0 0.0 27.1
2015-Jul-03 21:21N 43°04' E 008°19'0 3.8 27.2
2015-Jul-03 21:14N 43°04' E 008°20'114.5
2015-Jul-03 21:11N 43°04' E 008°19'0 0.0 27.2
2015-Jul-03 20:26N 43°04' E 008°19'0 1.1 27.5
2015-Jul-03 20:16N 43°04' E 008°19'0 0.2 27.5
2015-Jul-03 18:40N 43°04' E 008°19'0 6.0
2015-Jul-03 18:37N 43°03' E 008°19'0 0.0 28.0
2015-Jul-03 17:54N 43°03' E 008°19'0 0.3 28.1
2015-Jul-03 16:16N 43°03' E 008°18'0 0.1 28.7
2015-Jul-03 14:47N 43°03' E 008°18'0 0.3 28.7
2015-Jul-03 14:12N 43°03' E 008°18'0 2.1 28.6
2015-Jul-03 14:07N 43°03' E 008°18'0 0.0 28.6
2015-Jul-03 13:59N 43°03' E 008°18'0 2.2 28.4
2015-Jul-03 13:54N 43°03' E 008°18'0 0.0 28.4
2015-Jul-03 13:08N 43°03' E 008°18'2 0.7 27.9
2015-Jul-03 09:56N 43°03' E 008°15'213.9 26.6
2015-Jul-03 09:49N 43°02' E 008°13'0 0.0 26.6
2015-Jul-03 08:57N 43°02' E 008°13'0 0.0
2015-Jul-03 08:15N 43°02' E 008°13'1 0.3
2015-Jul-03 06:04N 43°01' E 008°13'1 1.1 25.6
2015-Jul-03 04:54N 42°60' E 008°13'0 0.0 25.7
2015-Jul-03 04:08N 42°60' E 008°13'0 0.5 25.9
2015-Jul-03 03:18N 42°60' E 008°13'1 0.5 26.0
2015-Jul-03 01:41N 42°59' E 008°14'0 0.0 25.5
2015-Jul-03 01:36N 42°59' E 008°14'0 0.3 25.5
2015-Jul-02 23:53N 42°58' E 008°14'0 0.0 25.4
2015-Jul-02 22:25N 42°58' E 008°14'0 3.6 25.5
2015-Jul-02 22:20N 42°59' E 008°14'0 0.2 25.5
2015-Jul-02 20:42N 42°59' E 008°13'1 1.3
2015-Jul-02 20:04N 42°59' E 008°12'0 0.0 26.4
2015-Jul-02 19:51N 42°59' E 008°12'0 0.0 26.5
2015-Jul-02 19:04N 42°59' E 008°12'0 4.0 26.5
2015-Jul-02 18:58N 42°59' E 008°12'0 0.4 26.7
2015-Jul-02 17:55N 42°59' E 008°11'1 0.9 27.2
2015-Jul-02 16:47N 42°58' E 008°10'0 0.6 27.5
2015-Jul-02 16:17N 42°58' E 008°10'1 1.5 27.1
2015-Jul-02 15:53N 42°57' E 008°09'0 0.6 27.6
2015-Jul-02 15:00N 42°57' E 008°09'1 0.9 27.2
2015-Jul-02 14:05N 42°56' E 008°09'1 0.4 26.9
2015-Jul-02 11:52N 42°55' E 008°09'0 0.6
2015-Jul-02 11:01N 42°55' E 008°10'1 0.2 26.0
2015-Jul-02 06:03N 42°54' E 008°11'0 0.7 25.1
2015-Jul-02 05:54N 42°54' E 008°10'1 0.3 25.1
2015-Jul-02 03:11N 42°54' E 008°10'0 0.0 25.5
2015-Jul-02 01:48N 42°54' E 008°10'2 1.1 25.7
2015-Jul-02 00:02N 42°52' E 008°09'0 0.0 25.9
2015-Jul-01 22:45N 42°52' E 008°09'0 0.3 26.1
2015-Jul-01 21:57N 42°52' E 008°09'0 0.4 26.2
2015-Jul-01 20:57N 42°52' E 008°10'1 0.3 26.3
2015-Jul-01 18:57N 42°51' E 008°10'1 0.2 26.6
2015-Jul-01 16:04N 42°51' E 008°10'0 0.3 26.7
2015-Jul-01 15:11N 42°50' E 008°10'0 0.3 26.6
2015-Jul-01 15:00N 42°50' E 008°10'0 2.2 26.5
2015-Jul-01 14:56N 42°50' E 008°10'0 0.3 26.5
2015-Jul-01 14:18N 42°50' E 008°10'1 0.2 26.5
2015-Jul-01 11:51N 42°50' E 008°09'0 2.8 26.0
2015-Jul-01 11:44N 42°50' E 008°09'0 0.2 25.9
2015-Jul-01 10:37N 42°50' E 008°09'1 0.9 25.9
2015-Jul-01 09:40N 42°49' E 008°09'0 0.6 25.6
2015-Jul-01 08:51N 42°49' E 008°09'0 0.1 25.2
2015-Jul-01 08:03N 42°49' E 008°09'0 1.6 25.1
2015-Jul-01 07:59N 42°49' E 008°09'0 7.3
2015-Jul-01 07:56N 42°48' E 008°09'0 0.0 25.0
2015-Jul-01 06:56N 42°48' E 008°09'1 0.9 24.8
2015-Jul-01 06:13N 42°48' E 008°09'1 0.8 24.8
2015-Jul-01 05:12N 42°47' E 008°10'0 0.0 25.0
2015-Jul-01 05:06N 42°47' E 008°10'1 0.2 25.0
2015-Jul-01 02:49N 42°47' E 008°10'0 0.0 25.3
2015-Jul-01 01:59N 42°47' E 008°10'2 0.3 25.4
2015-Jun-30 18:04N 42°45' E 008°09'0 1.7 26.3
2015-Jun-30 17:55N 42°45' E 008°09'0 1.6 26.3
2015-Jun-30 17:51N 42°45' E 008°09'1 1.1 26.4
2015-Jun-30 17:04N 42°44' E 008°09'0 0.3 26.6
2015-Jun-30 16:07N 42°44' E 008°09'2 0.4 26.8
2015-Jun-30 11:58N 42°42' E 008°09'0 3.0 27.2
2015-Jun-30 11:55N 42°42' E 008°09'0 0.0 27.2
2015-Jun-30 10:58N 42°42' E 008°09'0 1.8 25.4
2015-Jun-30 10:55N 42°42' E 008°10'0 4.7 25.4
2015-Jun-30 10:49N 42°42' E 008°10'0 0.0 25.4
2015-Jun-30 10:03N 42°42' E 008°10'0 0.3 25.1
2015-Jun-30 09:17N 42°42' E 008°10'0 1.5 25.0
2015-Jun-30 09:12N 42°42' E 008°10'0 0.1 25.0
2015-Jun-30 03:59N 42°41' E 008°10'0 0.3 24.4
2015-Jun-30 03:01N 42°41' E 008°09'0 0.3 24.5
2015-Jun-30 02:12N 42°41' E 008°10'1 9.0 24.5
2015-Jun-30 02:05N 42°40' E 008°09'1 0.3 24.5
2015-Jun-29 21:48N 42°39' E 008°08'0 0.4 24.9
2015-Jun-29 21:04N 42°39' E 008°08'0 1.2
2015-Jun-29 20:55N 42°39' E 008°08'0 9.5 25.0
2015-Jun-29 20:52N 42°38' E 008°07'0 0.2 25.0
2015-Jun-29 19:59N 42°38' E 008°08'2 0.8 25.1
2015-Jun-29 18:06N 42°37' E 008°08'1 0.5 25.4
2015-Jun-29 16:14N 42°36' E 008°09'1 0.3
2015-Jun-29 14:11N 42°36' E 008°10'0 0.0 25.5
2015-Jun-29 13:53N 42°36' E 008°10'0 0.9
2015-Jun-29 13:50N 42°36' E 008°10'0 0.2
2015-Jun-29 12:12N 42°36' E 008°10'0 2.5 25.0
2015-Jun-29 12:05N 42°36' E 008°10'0 0.0 25.0
2015-Jun-29 12:00N 42°36' E 008°10'1 0.3 25.0
2015-Jun-29 06:37N 42°35' E 008°08'0 3.6 23.6
2015-Jun-29 06:31N 42°35' E 008°08'0 0.0 23.6
2015-Jun-29 06:12N 42°35' E 008°08'0 0.0 23.6
2015-Jun-29 06:08N 42°35' E 008°08'1 0.6 23.6
2015-Jun-29 04:58N 42°34' E 008°08'1 0.6 23.6
2015-Jun-29 04:03N 42°33' E 008°08'1 0.9 23.6
2015-Jun-29 03:14N 42°33' E 008°08'1 0.3 23.6
2015-Jun-28 22:03N 42°32' E 008°10'0 0.1 23.9
2015-Jun-28 18:50N 42°32' E 008°10'0 0.0 24.2
2015-Jun-28 18:48N 42°32' E 008°10'0 0.3 24.2
2015-Jun-28 17:57N 42°32' E 008°10'0 3.8 24.3
2015-Jun-28 17:52N 42°32' E 008°09'0 0.3 24.3
2015-Jun-28 17:08N 42°32' E 008°09'0 0.1 24.3
2015-Jun-28 16:16N 42°32' E 008°09'0 0.3 24.3
2015-Jun-28 14:53N 42°32' E 008°09'0 0.5 24.2
2015-Jun-28 14:06N 42°31' E 008°09'0 0.3 24.1
2015-Jun-28 12:16N 42°31' E 008°09'1 0.6 23.6
2015-Jun-28 09:51N 42°29' E 008°09'0 0.0 23.4
2015-Jun-28 09:07N 42°29' E 008°09'0 0.5 23.3
2015-Jun-28 09:02N 42°29' E 008°09'1 7.9 23.3
2015-Jun-28 08:58N 42°29' E 008°09'0 0.0
2015-Jun-28 08:12N 42°29' E 008°09'1 0.3 23.3
2015-Jun-28 05:09N 42°28' E 008°09'0 0.0 23.1
2015-Jun-28 05:02N 42°28' E 008°09'0 0.0 23.1
2015-Jun-28 04:53N 42°28' E 008°09'1 1.1 23.1
2015-Jun-28 04:16N 42°28' E 008°08'0 4.0 23.1
2015-Jun-28 04:09N 42°27' E 008°08'0 0.2 23.1
2015-Jun-28 03:10N 42°27' E 008°08'1 0.4 23.2
2015-Jun-28 00:56N 42°26' E 008°08'1 9.1
2015-Jun-28 00:51N 42°26' E 008°07'0 0.1 23.2
2015-Jun-27 20:50N 42°26' E 008°06'1 1.0 23.3
2015-Jun-27 19:54N 42°26' E 008°05'1 1.3 23.3
2015-Jun-27 19:01N 42°26' E 008°04'1 0.4 23.4
2015-Jun-27 16:02N 42°26' E 008°02'1 1.1 23.5
2015-Jun-27 15:09N 42°25' E 008°01'0 0.6 23.6
2015-Jun-27 15:02N 42°25' E 008°01'011.2 23.6
2015-Jun-27 15:01N 42°25' E 008°02'1 0.9 23.5
2015-Jun-27 14:16N 42°24' E 008°01'0 0.0 23.4
2015-Jun-27 14:13N 42°24' E 008°01'2 0.7 23.4
2015-Jun-27 11:06N 42°22' E 008°01'0 1.9 23.1
2015-Jun-27 11:02N 42°22' E 008°01'0 0.0 23.1
2015-Jun-27 10:50N 42°22' E 008°01'2 0.4 23.1
2015-Jun-27 05:18N 42°24' E 007°59'0 0.0 23.0
2015-Jun-27 05:11N 42°24' E 007°59'0 0.2 22.9
2015-Jun-27 03:40N 42°24' E 007°58'0 0.0 23.0
2015-Jun-27 03:35N 42°24' E 007°58'2 0.9 23.0
2015-Jun-27 01:07N 42°23' E 007°55'324.6 23.2
2015-Jun-27 01:00N 42°20' E 007°54'0 0.0 23.2
2015-Jun-26 22:45N 42°20' E 007°54'0 0.0 23.4
2015-Jun-26 22:05N 42°20' E 007°54'1 6.8 23.6
2015-Jun-26 21:58N 42°20' E 007°54'1 0.5 23.6
2015-Jun-26 20:59N 42°19' E 007°54'0 0.1 23.7
2015-Jun-26 20:15N 42°19' E 007°54'0 0.0 23.9
2015-Jun-26 19:52N 42°19' E 007°54'   24.0
Track history (hours):
 
Tides and Currents Weather Stations Pressure Air Temp Water Temp Dewpoint Dewpoint Depression Visibility Wind Speed Wind Dir Waves Ship Positions

Drifting buoy 62910

Last reported at 2015-Jul-06 18:01 UTC. Time now 2015-Jul-06 19:57 UTC.
Position N 43°13' E 008°47'.

Water temperature 27.6 ° C

Date/timePositionNaut miles runAvg speedWind from/ knotsBaromVisibWave heightAir tempDewpointWater temp
2015-Jul-06 18:01N 43°13' E 008°47'1 7.2 27.6
2015-Jul-06 17:56N 43°12' E 008°46'1 0.2 27.6
2015-Jul-06 15:06N 43°12' E 008°46'0 1.3 27.7
2015-Jul-06 14:59N 43°12' E 008°46'0 0.1 27.7
2015-Jul-06 14:15N 43°12' E 008°46'1 0.3 27.6
2015-Jul-06 10:52N 43°11' E 008°44'1 0.5 26.9
2015-Jul-06 08:50N 43°10' E 008°44'2 0.6 26.7
2015-Jul-06 05:50N 43°09' E 008°41'1 0.4 26.6
2015-Jul-06 04:11N 43°09' E 008°41'2 0.7 26.7
2015-Jul-06 01:00N 43°07' E 008°38'1 0.1 26.9
2015-Jul-05 20:10N 43°08' E 008°38'1 0.7 27.1
2015-Jul-05 18:49N 43°07' E 008°37'0 0.0 27.2
2015-Jul-05 18:35N 43°07' E 008°37'0 1.5 27.2
2015-Jul-05 18:21N 43°07' E 008°37'1 1.8 27.2
2015-Jul-05 17:59N 43°07' E 008°36'0 0.0 27.2
2015-Jul-05 16:59N 43°07' E 008°36'0 0.0 27.2
2015-Jul-05 16:54N 43°07' E 008°36'0 0.4 27.2
2015-Jul-05 16:42N 43°07' E 008°36'1 0.5 27.2
2015-Jul-05 15:10N 43°07' E 008°35'0 0.6 27.2
2015-Jul-05 15:03N 43°07' E 008°35'0 1.8 27.2
2015-Jul-05 14:54N 43°07' E 008°35'1 0.3 27.2
2015-Jul-05 10:57N 43°07' E 008°34'0 0.0
2015-Jul-05 10:52N 43°07' E 008°34'0 6.4 26.9
2015-Jul-05 10:48N 43°07' E 008°33'0 0.0 26.9
2015-Jul-05 10:01N 43°07' E 008°33'0 4.3 26.8
2015-Jul-05 09:57N 43°07' E 008°33'0 0.0 26.7
2015-Jul-05 09:13N 43°07' E 008°33'0 2.5 26.4
2015-Jul-05 09:08N 43°07' E 008°33'0 0.1 26.4
2015-Jul-05 08:16N 43°07' E 008°33'0 0.2 26.1
2015-Jul-05 07:04N 43°07' E 008°32'0 1.7 26.0
2015-Jul-05 06:59N 43°07' E 008°32'0 5.3 26.0
2015-Jul-05 06:55N 43°07' E 008°32'1 0.3 26.0
2015-Jul-05 02:57N 43°07' E 008°30'1 0.4 26.4
2015-Jul-05 01:14N 43°06' E 008°29'1 0.2 26.7
2015-Jul-04 21:46N 43°06' E 008°28'0 0.5 27.0
2015-Jul-04 20:51N 43°06' E 008°28'0 0.0 27.2
2015-Jul-04 20:00N 43°06' E 008°28'0 6.0
2015-Jul-04 19:56N 43°06' E 008°27'0 0.4 27.4
2015-Jul-04 19:12N 43°06' E 008°27'0 0.1 27.7
2015-Jul-04 17:08N 43°06' E 008°27'113.6 27.9
2015-Jul-04 17:05N 43°06' E 008°26'0 0.1 27.9
2015-Jul-04 12:57N 43°06' E 008°25'1 0.6 27.7
2015-Jul-04 11:57N 43°06' E 008°25'0 0.0 27.3
2015-Jul-04 11:17N 43°06' E 008°25'0 2.6 27.3
2015-Jul-04 11:15N 43°06' E 008°25'0 4.8 27.4
2015-Jul-04 11:10N 43°06' E 008°24'1 0.4 27.4
2015-Jul-04 07:50N 43°06' E 008°22'0 0.3 26.5
2015-Jul-04 06:54N 43°06' E 008°22'1 0.3 26.3
2015-Jul-04 03:57N 43°05' E 008°22'0 0.5 26.2
2015-Jul-04 03:06N 43°05' E 008°21'0 1.5 26.3
2015-Jul-04 03:00N 43°05' E 008°21'1 0.3
2015-Jul-03 22:05N 43°04' E 008°19'0 2.2 27.0
2015-Jul-03 22:00N 43°04' E 008°20'0 5.3 27.0
2015-Jul-03 21:56N 43°04' E 008°19'0 0.0 27.1
2015-Jul-03 21:21N 43°04' E 008°19'0 3.8 27.2
2015-Jul-03 21:14N 43°04' E 008°20'114.5
2015-Jul-03 21:11N 43°04' E 008°19'0 0.0 27.2
2015-Jul-03 20:26N 43°04' E 008°19'0 1.1 27.5
2015-Jul-03 20:16N 43°04' E 008°19'0 0.2 27.5
2015-Jul-03 18:40N 43°04' E 008°19'0 6.0
2015-Jul-03 18:37N 43°03' E 008°19'0 0.0 28.0
2015-Jul-03 17:54N 43°03' E 008°19'0 0.3 28.1
2015-Jul-03 16:16N 43°03' E 008°18'0 0.1 28.7
2015-Jul-03 14:47N 43°03' E 008°18'0 0.3 28.7
2015-Jul-03 14:12N 43°03' E 008°18'0 2.1 28.6
2015-Jul-03 14:07N 43°03' E 008°18'0 0.0 28.6
2015-Jul-03 13:59N 43°03' E 008°18'0 2.2 28.4
2015-Jul-03 13:54N 43°03' E 008°18'0 0.0 28.4
2015-Jul-03 13:08N 43°03' E 008°18'2 0.7 27.9
2015-Jul-03 09:56N 43°03' E 008°15'213.9 26.6
2015-Jul-03 09:49N 43°02' E 008°13'0 0.0 26.6
2015-Jul-03 08:57N 43°02' E 008°13'0 0.0
2015-Jul-03 08:15N 43°02' E 008°13'1 0.3
2015-Jul-03 06:04N 43°01' E 008°13'1 1.1 25.6
2015-Jul-03 04:54N 42°60' E 008°13'0 0.0 25.7
2015-Jul-03 04:08N 42°60' E 008°13'0 0.5 25.9
2015-Jul-03 03:18N 42°60' E 008°13'1 0.5 26.0
2015-Jul-03 01:41N 42°59' E 008°14'0 0.0 25.5
2015-Jul-03 01:36N 42°59' E 008°14'0 0.3 25.5
2015-Jul-02 23:53N 42°58' E 008°14'0 0.0 25.4
2015-Jul-02 22:25N 42°58' E 008°14'0 3.6 25.5
2015-Jul-02 22:20N 42°59' E 008°14'0 0.2 25.5
2015-Jul-02 20:42N 42°59' E 008°13'1 1.3
2015-Jul-02 20:04N 42°59' E 008°12'0 0.0 26.4
2015-Jul-02 19:51N 42°59' E 008°12'0 0.0 26.5
2015-Jul-02 19:04N 42°59' E 008°12'0 4.0 26.5
2015-Jul-02 18:58N 42°59' E 008°12'0 0.4 26.7
2015-Jul-02 17:55N 42°59' E 008°11'1 0.9 27.2
2015-Jul-02 16:47N 42°58' E 008°10'0 0.6 27.5
2015-Jul-02 16:17N 42°58' E 008°10'1 1.5 27.1
2015-Jul-02 15:53N 42°57' E 008°09'0 0.6 27.6
2015-Jul-02 15:00N 42°57' E 008°09'1 0.9 27.2
2015-Jul-02 14:05N 42°56' E 008°09'1 0.4 26.9
2015-Jul-02 11:52N 42°55' E 008°09'0 0.6
2015-Jul-02 11:01N 42°55' E 008°10'1 0.2 26.0
2015-Jul-02 06:03N 42°54' E 008°11'0 0.7 25.1
2015-Jul-02 05:54N 42°54' E 008°10'1 0.3 25.1
2015-Jul-02 03:11N 42°54' E 008°10'0 0.0 25.5
2015-Jul-02 01:48N 42°54' E 008°10'2 1.1 25.7
2015-Jul-02 00:02N 42°52' E 008°09'0 0.0 25.9
2015-Jul-01 22:45N 42°52' E 008°09'0 0.3 26.1
2015-Jul-01 21:57N 42°52' E 008°09'0 0.4 26.2
2015-Jul-01 20:57N 42°52' E 008°10'1 0.3 26.3
2015-Jul-01 18:57N 42°51' E 008°10'1 0.2 26.6
2015-Jul-01 16:04N 42°51' E 008°10'0 0.3 26.7
2015-Jul-01 15:11N 42°50' E 008°10'0 0.3 26.6
2015-Jul-01 15:00N 42°50' E 008°10'0 2.2 26.5
2015-Jul-01 14:56N 42°50' E 008°10'0 0.3 26.5
2015-Jul-01 14:18N 42°50' E 008°10'1 0.2 26.5
2015-Jul-01 11:51N 42°50' E 008°09'0 2.8 26.0
2015-Jul-01 11:44N 42°50' E 008°09'0 0.2 25.9
2015-Jul-01 10:37N 42°50' E 008°09'1 0.9 25.9
2015-Jul-01 09:40N 42°49' E 008°09'0 0.6 25.6
2015-Jul-01 08:51N 42°49' E 008°09'0 0.1 25.2
2015-Jul-01 08:03N 42°49' E 008°09'0 1.6 25.1
2015-Jul-01 07:59N 42°49' E 008°09'0 7.3
2015-Jul-01 07:56N 42°48' E 008°09'0 0.0 25.0
2015-Jul-01 06:56N 42°48' E 008°09'1 0.9 24.8
2015-Jul-01 06:13N 42°48' E 008°09'1 0.8 24.8
2015-Jul-01 05:12N 42°47' E 008°10'0 0.0 25.0
2015-Jul-01 05:06N 42°47' E 008°10'1 0.2 25.0
2015-Jul-01 02:49N 42°47' E 008°10'0 0.0 25.3
2015-Jul-01 01:59N 42°47' E 008°10'2 0.3 25.4
2015-Jun-30 18:04N 42°45' E 008°09'0 1.7 26.3
2015-Jun-30 17:55N 42°45' E 008°09'0 1.6 26.3
2015-Jun-30 17:51N 42°45' E 008°09'1 1.1 26.4
2015-Jun-30 17:04N 42°44' E 008°09'0 0.3 26.6
2015-Jun-30 16:07N 42°44' E 008°09'2 0.4 26.8
2015-Jun-30 11:58N 42°42' E 008°09'0 3.0 27.2
2015-Jun-30 11:55N 42°42' E 008°09'0 0.0 27.2
2015-Jun-30 10:58N 42°42' E 008°09'0 1.8 25.4
2015-Jun-30 10:55N 42°42' E 008°10'0 4.7 25.4
2015-Jun-30 10:49N 42°42' E 008°10'0 0.0 25.4
2015-Jun-30 10:03N 42°42' E 008°10'0 0.3 25.1
2015-Jun-30 09:17N 42°42' E 008°10'0 1.5 25.0
2015-Jun-30 09:12N 42°42' E 008°10'0 0.1 25.0
2015-Jun-30 03:59N 42°41' E 008°10'0 0.3 24.4
2015-Jun-30 03:01N 42°41' E 008°09'0 0.3 24.5
2015-Jun-30 02:12N 42°41' E 008°10'1 9.0 24.5
2015-Jun-30 02:05N 42°40' E 008°09'1 0.3 24.5
2015-Jun-29 21:48N 42°39' E 008°08'0 0.4 24.9
2015-Jun-29 21:04N 42°39' E 008°08'0 1.2
2015-Jun-29 20:55N 42°39' E 008°08'0 9.5 25.0
2015-Jun-29 20:52N 42°38' E 008°07'0 0.2 25.0
2015-Jun-29 19:59N 42°38' E 008°08'2 0.8 25.1
2015-Jun-29 18:06N 42°37' E 008°08'1 0.5 25.4
2015-Jun-29 16:14N 42°36' E 008°09'1 0.3
2015-Jun-29 14:11N 42°36' E 008°10'0 0.0 25.5
2015-Jun-29 13:53N 42°36' E 008°10'0 0.9
2015-Jun-29 13:50N 42°36' E 008°10'0 0.2
2015-Jun-29 12:12N 42°36' E 008°10'0 2.5 25.0
2015-Jun-29 12:05N 42°36' E 008°10'0 0.0 25.0
2015-Jun-29 12:00N 42°36' E 008°10'1 0.3 25.0
2015-Jun-29 06:37N 42°35' E 008°08'0 3.6 23.6
2015-Jun-29 06:31N 42°35' E 008°08'0 0.0 23.6
2015-Jun-29 06:12N 42°35' E 008°08'0 0.0 23.6
2015-Jun-29 06:08N 42°35' E 008°08'1 0.6 23.6
2015-Jun-29 04:58N 42°34' E 008°08'1 0.6 23.6
2015-Jun-29 04:03N 42°33' E 008°08'1 0.9 23.6
2015-Jun-29 03:14N 42°33' E 008°08'1 0.3 23.6
2015-Jun-28 22:03N 42°32' E 008°10'0 0.1 23.9
2015-Jun-28 18:50N 42°32' E 008°10'0 0.0 24.2
2015-Jun-28 18:48N 42°32' E 008°10'0 0.3 24.2
2015-Jun-28 17:57N 42°32' E 008°10'0 3.8 24.3
2015-Jun-28 17:52N 42°32' E 008°09'0 0.3 24.3
2015-Jun-28 17:08N 42°32' E 008°09'0 0.1 24.3
2015-Jun-28 16:16N 42°32' E 008°09'0 0.3 24.3
2015-Jun-28 14:53N 42°32' E 008°09'0 0.5 24.2
2015-Jun-28 14:06N 42°31' E 008°09'0 0.3 24.1
2015-Jun-28 12:16N 42°31' E 008°09'1 0.6 23.6
2015-Jun-28 09:51N 42°29' E 008°09'0 0.0 23.4
2015-Jun-28 09:07N 42°29' E 008°09'0 0.5 23.3
2015-Jun-28 09:02N 42°29' E 008°09'1 7.9 23.3
2015-Jun-28 08:58N 42°29' E 008°09'0 0.0
2015-Jun-28 08:12N 42°29' E 008°09'1 0.3 23.3
2015-Jun-28 05:09N 42°28' E 008°09'0 0.0 23.1
2015-Jun-28 05:02N 42°28' E 008°09'0 0.0 23.1
2015-Jun-28 04:53N 42°28' E 008°09'1 1.1 23.1
2015-Jun-28 04:16N 42°28' E 008°08'0 4.0 23.1
2015-Jun-28 04:09N 42°27' E 008°08'0 0.2 23.1
2015-Jun-28 03:10N 42°27' E 008°08'1 0.4 23.2
2015-Jun-28 00:56N 42°26' E 008°08'1 9.1
2015-Jun-28 00:51N 42°26' E 008°07'0 0.1 23.2
2015-Jun-27 20:50N 42°26' E 008°06'1 1.0 23.3
2015-Jun-27 19:54N 42°26' E 008°05'1 1.3 23.3
2015-Jun-27 19:01N 42°26' E 008°04'1 0.4 23.4
2015-Jun-27 16:02N 42°26' E 008°02'1 1.1 23.5
2015-Jun-27 15:09N 42°25' E 008°01'0 0.6 23.6
2015-Jun-27 15:02N 42°25' E 008°01'011.2 23.6
2015-Jun-27 15:01N 42°25' E 008°02'1 0.9 23.5
2015-Jun-27 14:16N 42°24' E 008°01'0 0.0 23.4
2015-Jun-27 14:13N 42°24' E 008°01'2 0.7 23.4
2015-Jun-27 11:06N 42°22' E 008°01'0 1.9 23.1
2015-Jun-27 11:02N 42°22' E 008°01'0 0.0 23.1
2015-Jun-27 10:50N 42°22' E 008°01'2 0.4 23.1
2015-Jun-27 05:18N 42°24' E 007°59'0 0.0 23.0
2015-Jun-27 05:11N 42°24' E 007°59'0 0.2 22.9
2015-Jun-27 03:40N 42°24' E 007°58'0 0.0 23.0
2015-Jun-27 03:35N 42°24' E 007°58'2 0.9 23.0
2015-Jun-27 01:07N 42°23' E 007°55'324.6 23.2
2015-Jun-27 01:00N 42°20' E 007°54'0 0.0 23.2
2015-Jun-26 22:45N 42°20' E 007°54'0 0.0 23.4
2015-Jun-26 22:05N 42°20' E 007°54'1 6.8 23.6
2015-Jun-26 21:58N 42°20' E 007°54'1 0.5 23.6
2015-Jun-26 20:59N 42°19' E 007°54'0 0.1 23.7
2015-Jun-26 20:15N 42°19' E 007°54'0 0.0 23.9
2015-Jun-26 19:52N 42°19' E 007°54'   24.0

Dump ship's entire track history